Time;durP1;ratioP1;P1;durP2;ratioP2;P2;SDS_P1;SDS_P2;PMS_P1;PMS_P2;Temp;Humidity;BMP_temperature;BMP_pressure;BME280_temperature;BME280_humidity;BME280_pressure;Samples;Min_cycle;Max_cycle;Signal;HPM_P1;HPM_P2
2023/06/07 00:00:33;;;;;;;11.23;9.15;;;;;;;19.26;86.11;99681.41;5051636;28;20029;-77
2023/06/07 00:02:59;;;;;;;9.75;8.75;;;;;;;19.06;85.52;99646.06;5050306;28;20435;-77
2023/06/07 00:05:25;;;;;;;10.07;9.07;;;;;;;19.20;85.35;99668.69;5051586;28;20083;-77
2023/06/07 00:07:51;;;;;;;10.63;9.35;;;;;;;19.18;85.45;99671.47;5051530;28;20033;-77
2023/06/07 00:10:16;;;;;;;10.77;9.68;;;;;;;19.28;85.06;99689.19;5052118;28;20457;-77
2023/06/07 00:12:41;;;;;;;10.60;8.73;;;;;;;19.27;85.34;99691.00;5055348;28;20029;-76
2023/06/07 00:15:07;;;;;;;10.07;8.45;;;;;;;19.22;84.88;99682.59;5055499;28;20113;-77
2023/06/07 00:17:33;;;;;;;9.88;8.88;;;;;;;19.27;85.00;99693.63;5055408;28;20094;-76
2023/06/07 00:19:58;;;;;;;9.73;8.73;;;;;;;19.11;85.07;99666.81;5055169;28;20025;-77
2023/06/07 00:22:25;;;;;;;10.13;9.00;;;;;;;19.23;85.34;99689.56;5055423;28;20031;-76
2023/06/07 00:24:51;;;;;;;10.85;9.73;;;;;;;19.18;85.09;99682.03;5055131;28;20036;-76
2023/06/07 00:27:16;;;;;;;10.93;9.65;;;;;;;19.17;85.47;99692.69;5055272;28;20033;-77
2023/06/07 00:29:42;;;;;;;9.77;8.77;;;;;;;19.03;85.47;99672.69;5055376;28;20384;-76
2023/06/07 00:32:07;;;;;;;9.98;8.98;;;;;;;19.07;85.60;99684.69;5054940;28;20017;-76
2023/06/07 00:34:33;;;;;;;10.70;9.60;;;;;;;18.97;85.16;99665.28;5054893;28;20069;-76
2023/06/07 00:36:58;;;;;;;9.90;8.90;;;;;;;19.13;84.91;99697.41;5054956;28;20032;-77
2023/06/07 00:39:24;;;;;;;9.35;8.45;;;;;;;19.13;85.34;99692.13;5054920;28;20067;-77
2023/06/07 00:41:51;;;;;;;9.73;8.93;;;;;;;19.11;85.29;99686.13;5054701;28;20504;-77
2023/06/07 00:44:17;;;;;;;10.13;9.10;;;;;;;19.11;85.58;99683.47;5054990;28;20048;-76
2023/06/07 00:46:42;;;;;;;11.00;9.00;;;;;;;18.94;85.74;99653.16;5054896;28;20025;-77
2023/06/07 00:49:09;;;;;;;10.73;9.73;;;;;;;19.13;85.65;99688.63;5054592;28;20040;-77
2023/06/07 00:51:34;;;;;;;13.70;11.25;;;;;;;19.14;85.36;99683.22;5054835;28;20028;-76
2023/06/07 00:54:05;;;;;;;12.57;10.93;;;;;;;19.04;86.39;99686.72;5054440;28;20029;-76
2023/06/07 00:56:31;;;;;;;15.10;12.32;;;;;;;18.86;87.54;99668.78;5054597;28;20029;-76
2023/06/07 00:58:57;;;;;;;14.95;11.63;;;;;;;18.92;88.27;99675.38;5054447;28;20507;-76
2023/06/07 01:01:23;;;;;;;13.30;11.95;;;;;;;18.89;88.06;99658.00;5054661;28;20017;-77
2023/06/07 01:03:48;;;;;;;12.60;11.40;;;;;;;19.05;88.14;99688.44;5054460;28;20100;-76
2023/06/07 01:06:14;;;;;;;14.93;12.15;;;;;;;18.87;87.70;99645.88;5054540;28;20056;-77
2023/06/07 01:08:40;;;;;;;14.75;12.38;;;;;;;19.03;87.76;99674.50;5054514;28;20047;-76
2023/06/07 01:11:07;;;;;;;14.77;13.18;;;;;;;18.81;88.13;99652.50;5054064;28;20048;-77
2023/06/07 01:13:33;;;;;;;13.48;11.52;;;;;;;18.85;88.19;99643.38;5054473;28;20032;-76
2023/06/07 01:15:58;;;;;;;14.32;11.43;;;;;;;18.93;88.54;99669.97;5053991;28;20428;-77
2023/06/07 01:18:24;;;;;;;15.15;13.65;;;;;;;18.85;88.82;99669.75;5053030;28;20113;-76
2023/06/07 01:20:55;;;;;;;15.13;13.43;;;;;;;18.69;88.58;99629.69;5053972;28;20023;-77
2023/06/07 01:23:32;;;;;;;13.40;11.27;;;;;;;18.94;88.01;99670.81;5054139;28;20055;-76
2023/06/07 01:25:59;;;;;;;13.75;12.05;;;;;;;18.75;88.60;99638.94;5054100;28;20029;-77
2023/06/07 01:28:26;;;;;;;13.38;11.98;;;;;;;18.95;88.42;99665.41;5054079;28;20033;-76
2023/06/07 01:30:53;;;;;;;13.63;12.25;;;;;;;18.88;88.29;99658.97;5053747;28;20036;-76
2023/06/07 01:33:19;;;;;;;12.27;10.98;;;;;;;19.00;88.20;99670.28;5053890;28;20041;-76
2023/06/07 01:35:46;;;;;;;14.13;12.57;;;;;;;19.00;88.00;99672.94;5053918;28;20108;-76
2023/06/07 01:38:13;;;;;;;12.90;11.63;;;;;;;18.97;88.46;99669.75;5054065;28;20025;-76
2023/06/07 01:40:39;;;;;;;15.63;12.40;;;;;;;18.75;88.86;99650.38;5053979;28;20028;-76
2023/06/07 01:43:05;;;;;;;14.25;12.25;;;;;;;18.58;89.60;99632.34;5053721;28;20107;-77
2023/06/07 01:45:31;;;;;;;12.73;10.43;;;;;;;18.63;89.44;99670.63;5053645;28;20205;-76
2023/06/07 01:47:57;;;;;;;10.88;9.88;;;;;;;18.43;89.09;99653.72;5053494;28;20033;-76
2023/06/07 01:50:22;;;;;;;10.30;9.30;;;;;;;18.44;89.12;99658.03;5053599;28;20033;-76
2023/06/07 01:52:48;;;;;;;10.75;9.65;;;;;;;18.44;89.32;99657.19;5053798;28;20029;-77
2023/06/07 01:55:13;;;;;;;10.02;9.13;;;;;;;18.54;88.98;99665.22;5053631;28;20107;-76
2023/06/07 01:58:14;;;;;;;11.90;10.65;;;;;;;18.64;89.66;99682.84;5053533;28;20040;-77
2023/06/07 02:01:02;;;;;;;10.43;9.32;;;;;;;18.45;90.03;99656.22;5053447;28;20103;-76
2023/06/07 02:03:51;;;;;;;10.02;9.02;;;;;;;18.62;89.46;99679.47;5053739;28;20602;-77
2023/06/07 02:06:20;;;;;;;11.38;10.32;;;;;;;18.65;89.93;99681.03;5053500;28;20031;-77
2023/06/07 02:08:50;;;;;;;12.55;11.25;;;;;;;18.53;90.20;99668.81;5053334;28;20033;-77
2023/06/07 02:11:16;;;;;;;11.82;10.73;;;;;;;18.62;90.34;99690.00;5053322;28;20036;-76
2023/06/07 02:13:43;;;;;;;12.52;10.57;;;;;;;18.64;90.22;99689.91;5053227;28;20039;-77
2023/06/07 02:16:10;;;;;;;11.23;9.90;;;;;;;18.45;90.13;99654.44;5053305;28;20124;-76
2023/06/07 02:18:42;;;;;;;11.32;10.30;;;;;;;18.66;89.49;99693.25;5053325;28;20029;-76
2023/06/07 02:21:08;;;;;;;9.93;9.02;;;;;;;18.69;89.25;99693.00;5052860;28;20108;-77
2023/06/07 02:23:34;;;;;;;11.57;9.65;;;;;;;18.66;89.53;99690.63;5052983;28;20029;-77
2023/06/07 02:25:59;;;;;;;11.25;10.15;;;;;;;18.60;89.51;99685.84;5052676;28;20021;-77
2023/06/07 02:28:25;;;;;;;10.95;9.95;;;;;;;18.43;89.31;99659.00;5053104;28;20033;-77
2023/06/07 02:30:51;;;;;;;11.95;9.65;;;;;;;18.55;89.73;99682.72;5051527;28;20076;-77
2023/06/07 02:33:21;;;;;;;10.77;9.77;;;;;;;18.44;89.59;99670.38;5051907;28;20445;-76
2023/06/07 02:35:46;;;;;;;10.93;9.93;;;;;;;18.57;89.97;99692.19;5052891;28;20021;-77
2023/06/07 02:38:12;;;;;;;11.95;9.88;;;;;;;18.52;89.66;99686.44;5052440;28;20082;-77
2023/06/07 02:40:37;;;;;;;10.07;9.07;;;;;;;18.44;89.51;99683.56;5052657;28;20116;-77
2023/06/07 02:43:03;;;;;;;9.90;8.95;;;;;;;18.52;89.78;99690.88;5052726;28;20459;-76
2023/06/07 02:45:28;;;;;;;10.02;9.02;;;;;;;18.51;89.54;99690.03;5052754;28;20419;-77
2023/06/07 02:47:53;;;;;;;10.48;9.38;;;;;;;18.49;89.27;99693.75;5052457;28;20471;-75
2023/06/07 02:50:21;;;;;;;10.07;8.80;;;;;;;18.33;89.11;99671.25;5052694;28;20036;-77
2023/06/07 02:52:47;;;;;;;9.82;8.88;;;;;;;18.39;89.32;99694.47;5052498;28;20172;-77
2023/06/07 02:55:13;;;;;;;9.68;8.55;;;;;;;18.31;89.34;99681.06;5052331;28;20096;-77
2023/06/07 02:57:38;;;;;;;9.48;8.35;;;;;;;18.31;89.28;99688.13;5051994;28;20032;-74
2023/06/07 03:00:16;;;;;;;11.25;10.05;;;;;;;18.31;89.45;99688.97;5052196;28;20021;-75
2023/06/07 03:02:41;;;;;;;10.02;9.07;;;;;;;18.12;89.46;99665.00;5052273;28;20032;-75
2023/06/07 03:05:07;;;;;;;9.55;8.55;;;;;;;18.14;89.58;99677.09;5051913;28;20082;-75
2023/06/07 03:07:35;;;;;;;10.65;9.55;;;;;;;18.28;89.55;99697.09;5052192;28;20036;-75
2023/06/07 03:10:00;;;;;;;12.75;9.43;;;;;;;18.25;89.33;99701.81;5051817;28;20081;-75
2023/06/07 03:12:26;;;;;;;10.70;9.02;;;;;;;18.23;89.72;99704.53;5051951;28;20112;-75
2023/06/07 03:14:51;;;;;;;9.88;8.98;;;;;;;18.10;89.78;99680.09;5051975;28;20025;-75
2023/06/07 03:17:17;;;;;;;9.93;8.88;;;;;;;18.25;89.91;99710.53;5051821;28;20029;-75
2023/06/07 03:19:43;;;;;;;11.00;9.93;;;;;;;18.26;89.36;99706.09;5051883;28;20024;-75
2023/06/07 03:22:08;;;;;;;10.82;9.77;;;;;;;18.10;89.39;99685.34;5051645;28;20067;-76
2023/06/07 03:24:36;;;;;;;10.90;9.68;;;;;;;18.16;89.05;99691.00;5052328;28;20022;-75
2023/06/07 03:27:03;;;;;;;8.35;7.55;;;;;;;18.29;88.80;99711.16;5051752;28;20025;-75
2023/06/07 03:29:30;;;;;;;9.90;8.90;;;;;;;18.33;87.95;99713.44;5051941;28;20025;-75
2023/06/07 03:31:56;;;;;;;10.77;8.98;;;;;;;18.16;88.17;99696.28;5051961;28;20525;-75
2023/06/07 03:34:21;;;;;;;9.68;8.68;;;;;;;18.27;87.74;99734.16;5051707;28;20055;-75
2023/06/07 03:36:47;;;;;;;9.02;8.15;;;;;;;18.10;87.97;99704.66;5051838;28;20469;-75
2023/06/07 03:39:13;;;;;;;9.50;7.63;;;;;;;18.11;87.27;99687.88;5051477;28;20116;-75
2023/06/07 03:41:38;;;;;;;9.30;8.07;;;;;;;18.31;87.17;99727.69;5051653;28;20036;-75
2023/06/07 03:44:04;;;;;;;8.60;7.80;;;;;;;18.34;87.25;99736.19;5051793;28;20033;-75
2023/06/07 03:46:29;;;;;;;8.25;7.30;;;;;;;18.36;86.54;99725.53;5054548;28;20085;-75
2023/06/07 03:48:55;;;;;;;8.25;7.55;;;;;;;18.30;85.88;99713.66;5055442;28;20033;-75
2023/06/07 03:51:20;;;;;;;8.30;7.50;;;;;;;18.31;85.80;99703.94;5055643;28;20056;-75
2023/06/07 03:53:46;;;;;;;8.55;7.72;;;;;;;18.45;85.76;99720.34;5055851;28;20029;-75
2023/06/07 03:56:11;;;;;;;8.25;7.45;;;;;;;18.39;85.85;99702.38;5055531;28;20029;-75
2023/06/07 03:58:37;;;;;;;8.43;7.55;;;;;;;18.60;85.56;99715.69;5055535;28;20029;-76
2023/06/07 04:01:03;;;;;;;9.48;7.60;;;;;;;18.57;86.87;99708.00;5055413;28;20381;-75
2023/06/07 04:03:30;;;;;;;8.73;7.85;;;;;;;18.61;87.29;99700.69;5055565;28;20025;-75
2023/06/07 04:05:55;;;;;;;8.88;8.00;;;;;;;18.74;87.52;99727.81;5055138;28;20025;-76
2023/06/07 04:08:21;;;;;;;9.23;8.20;;;;;;;18.77;86.89;99724.09;5055192;28;20081;-75
2023/06/07 04:10:46;;;;;;;9.93;8.93;;;;;;;18.85;87.09;99725.16;5055312;28;20017;-75
2023/06/07 04:13:12;;;;;;;9.40;8.10;;;;;;;18.82;86.28;99714.84;5055059;28;20029;-75
2023/06/07 04:15:37;;;;;;;8.95;8.07;;;;;;;18.97;85.62;99733.91;5055579;28;20021;-75
2023/06/07 04:18:03;;;;;;;8.52;7.72;;;;;;;18.93;86.34;99717.47;5054886;28;20465;-75
2023/06/07 04:20:28;;;;;;;8.50;7.70;;;;;;;19.06;86.06;99734.97;5055129;28;20100;-75
2023/06/07 04:22:54;;;;;;;9.52;8.00;;;;;;;19.04;85.96;99721.03;5055270;28;20033;-75
2023/06/07 04:25:21;;;;;;;9.13;8.10;;;;;;;19.07;86.05;99719.00;5055023;28;20021;-75
2023/06/07 04:27:48;;;;;;;9.38;8.48;;;;;;;19.05;85.98;99706.91;5055201;28;20032;-75
2023/06/07 04:30:15;;;;;;;9.07;8.23;;;;;;;19.22;86.01;99726.66;5054868;28;20032;-75
2023/06/07 04:32:43;;;;;;;9.55;8.73;;;;;;;19.23;85.76;99723.06;5054723;28;20485;-75
2023/06/07 04:35:08;;;;;;;10.13;8.93;;;;;;;19.11;84.51;99712.50;5054616;28;20047;-75
2023/06/07 04:37:34;;;;;;;9.15;8.00;;;;;;;19.08;84.09;99704.84;5054915;28;20028;-75
2023/06/07 04:39:59;;;;;;;9.43;8.00;;;;;;;19.17;82.51;99703.25;5054652;28;20388;-75
2023/06/07 04:42:25;;;;;;;9.00;8.10;;;;;;;19.15;81.46;99708.66;5054746;28;20449;-76
2023/06/07 04:44:52;;;;;;;9.18;7.93;;;;;;;19.26;81.67;99736.84;5054708;28;20550;-75
2023/06/07 04:47:18;;;;;;;10.45;8.05;;;;;;;19.15;80.69;99716.59;5054246;28;20477;-75
2023/06/07 04:49:43;;;;;;;8.77;7.88;;;;;;;19.11;80.10;99703.75;5054669;28;20023;-75
2023/06/07 04:52:12;;;;;;;9.23;7.75;;;;;;;19.28;80.03;99729.63;5054813;28;20079;-75
2023/06/07 04:54:38;;;;;;;8.82;7.93;;;;;;;19.19;78.68;99710.09;5054653;28;20053;-75
2023/06/07 04:57:06;;;;;;;8.73;7.82;;;;;;;19.17;79.61;99698.84;5053882;28;20028;-75
2023/06/07 04:59:34;;;;;;;10.02;7.80;;;;;;;19.35;78.81;99720.25;5054352;28;20029;-75
2023/06/07 05:02:01;;;;;;;11.80;8.90;;;;;;;19.48;78.06;99733.28;5054183;28;20032;-76
2023/06/07 05:04:27;;;;;;;9.50;8.50;;;;;;;19.53;77.06;99735.53;5054279;28;20427;-75
2023/06/07 05:06:58;;;;;;;10.95;8.48;;;;;;;19.44;76.24;99711.56;5054464;28;20025;-75
2023/06/07 05:09:24;;;;;;;10.40;9.32;;;;;;;19.57;76.55;99734.31;5054301;28;20523;-75
2023/06/07 05:11:49;;;;;;;9.80;8.80;;;;;;;19.36;75.86;99705.22;5054333;28;20396;-76
2023/06/07 05:14:15;;;;;;;10.02;8.40;;;;;;;19.43;76.08;99723.09;5054247;28;20043;-75
2023/06/07 05:16:43;;;;;;;13.77;11.65;;;;;;;19.48;75.80;99730.66;5054238;28;20523;-75
2023/06/07 05:19:08;;;;;;;10.98;9.85;;;;;;;19.49;76.11;99728.84;5053719;28;20029;-75
2023/06/07 05:21:35;;;;;;;11.27;10.02;;;;;;;19.32;76.30;99709.09;5054259;28;20032;-75
2023/06/07 05:24:01;;;;;;;15.10;13.05;;;;;;;19.34;76.91;99702.72;5053922;28;20035;-76
2023/06/07 05:26:26;;;;;;;11.20;10.05;;;;;;;19.48;76.86;99730.66;5054298;28;20025;-75
2023/06/07 05:28:51;;;;;;;12.00;9.45;;;;;;;19.45;76.65;99730.88;5053937;28;20029;-75
2023/06/07 05:31:18;;;;;;;11.02;9.63;;;;;;;19.49;76.95;99726.19;5054086;28;20081;-75
2023/06/07 05:33:44;;;;;;;25.30;21.77;;;;;;;19.40;77.01;99715.41;5053870;28;20045;-75
2023/06/07 05:36:11;;;;;;;28.92;25.80;;;;;;;19.52;77.51;99736.53;5053448;28;20496;-75
2023/06/07 05:38:37;;;;;;;16.55;14.80;;;;;;;19.57;77.60;99737.81;5053766;28;20112;-75
2023/06/07 05:41:02;;;;;;;47.08;30.38;;;;;;;19.63;77.01;99737.31;5053816;28;20104;-75
2023/06/07 05:43:28;;;;;;;29.48;22.38;;;;;;;19.50;76.63;99718.13;5053652;28;20029;-75
2023/06/07 05:45:53;;;;;;;32.42;24.63;;;;;;;19.65;77.16;99737.22;5053490;28;20434;-75
2023/06/07 05:48:20;;;;;;;12.63;11.25;;;;;;;19.50;76.96;99701.44;5053539;28;20236;-76
2023/06/07 05:50:45;;;;;;;12.65;11.32;;;;;;;19.74;76.38;99736.44;5052432;28;20455;-76
2023/06/07 05:53:10;;;;;;;14.73;13.23;;;;;;;19.67;76.77;99707.03;5053530;28;20035;-76
2023/06/07 05:55:36;;;;;;;12.23;8.27;;;;;;;19.84;76.25;99734.69;5053597;28;20480;-76
2023/06/07 05:58:01;;;;;;;9.07;8.18;;;;;;;19.91;75.62;99733.22;5053404;28;20457;-76
2023/06/07 06:00:27;;;;;;;9.88;8.82;;;;;;;19.92;75.42;99705.81;5053421;28;20064;-76
2023/06/07 06:02:56;;;;;;;8.15;7.35;;;;;;;20.10;75.46;99731.66;5053447;28;20029;-76
2023/06/07 06:05:27;;;;;;;9.00;7.50;;;;;;;20.10;75.82;99729.00;5053706;28;20029;-76
2023/06/07 06:07:52;;;;;;;8.20;7.40;;;;;;;20.25;75.70;99732.16;5052420;28;20452;-76
2023/06/07 06:10:18;;;;;;;9.60;7.57;;;;;;;20.13;75.35;99692.56;5053222;28;20086;-76
2023/06/07 06:12:43;;;;;;;9.20;7.07;;;;;;;20.33;74.00;99716.47;5053488;28;20053;-76
2023/06/07 06:15:09;;;;;;;7.85;7.07;;;;;;;20.60;74.21;99737.91;5053646;28;20025;-76
2023/06/07 06:17:34;;;;;;;10.15;7.50;;;;;;;20.74;73.20;99734.09;5052986;28;20025;-76
2023/06/07 06:20:00;;;;;;;7.90;7.10;;;;;;;20.88;73.22;99738.16;5051883;28;20108;-76
2023/06/07 06:22:25;;;;;;;7.68;6.88;;;;;;;20.94;73.24;99742.91;5053041;28;20077;-76
2023/06/07 06:24:51;;;;;;;9.07;6.65;;;;;;;20.95;72.80;99730.53;5053077;28;20108;-76
2023/06/07 06:27:17;;;;;;;10.13;7.40;;;;;;;20.90;73.39;99721.19;5052736;28;20021;-76
2023/06/07 06:29:42;;;;;;;9.05;7.28;;;;;;;21.03;73.53;99738.63;5052740;28;20059;-76
2023/06/07 06:32:08;;;;;;;8.75;7.38;;;;;;;20.90;73.76;99723.84;5052787;28;20029;-76
2023/06/07 06:34:33;;;;;;;8.35;6.82;;;;;;;20.92;74.69;99729.81;5052892;28;20053;-76
2023/06/07 06:36:59;;;;;;;8.43;7.63;;;;;;;21.02;74.82;99745.72;5052872;28;20021;-76
2023/06/07 06:39:25;;;;;;;7.75;7.05;;;;;;;21.06;75.57;99739.19;5052409;28;20033;-76
2023/06/07 06:41:51;;;;;;;8.52;7.32;;;;;;;20.98;73.80;99733.72;5052535;28;20028;-76
2023/06/07 06:44:17;;;;;;;7.72;6.93;;;;;;;21.05;74.77;99752.56;5052258;28;20032;-76
2023/06/07 06:46:42;;;;;;;8.70;7.03;;;;;;;20.98;75.27;99733.72;5052585;28;20028;-76
2023/06/07 06:49:08;;;;;;;10.82;8.30;;;;;;;21.18;75.48;99761.09;5052418;28;20033;-76
2023/06/07 06:51:33;;;;;;;11.50;10.00;;;;;;;21.28;76.14;99767.25;5052583;28;20027;-76
2023/06/07 06:53:58;;;;;;;10.63;9.52;;;;;;;21.40;75.63;99767.97;5052906;28;20032;-76
2023/06/07 06:56:24;;;;;;;10.35;9.35;;;;;;;21.45;75.53;99757.81;5052158;28;20074;-76
2023/06/07 06:58:49;;;;;;;10.60;9.48;;;;;;;21.47;75.34;99744.44;5052375;28;20029;-76
2023/06/07 07:01:15;;;;;;;10.75;9.75;;;;;;;21.61;74.95;99757.25;5052024;28;20021;-76
2023/06/07 07:03:41;;;;;;;11.77;10.60;;;;;;;21.73;74.79;99773.88;5052502;28;20035;-76
2023/06/07 07:06:07;;;;;;;12.23;11.00;;;;;;;21.74;74.55;99775.53;5052090;28;20033;-76
2023/06/07 07:08:35;;;;;;;13.55;11.13;;;;;;;21.77;74.53;99775.25;5052449;28;20112;-76
2023/06/07 07:11:00;;;;;;;12.27;10.00;;;;;;;21.81;74.54;99777.47;5052572;28;20052;-76
2023/06/07 07:13:26;;;;;;;11.65;10.45;;;;;;;21.66;74.07;99753.22;5051961;28;20396;-76
2023/06/07 07:15:51;;;;;;;10.27;9.25;;;;;;;21.85;74.40;99773.56;5052332;28;20508;-76
2023/06/07 07:18:17;;;;;;;10.10;8.93;;;;;;;21.94;74.33;99774.53;5052165;28;20556;-76
2023/06/07 07:20:42;;;;;;;13.52;10.02;;;;;;;21.65;73.53;99740.09;5051970;28;20464;-76
2023/06/07 07:23:07;;;;;;;10.25;9.35;;;;;;;21.92;73.32;99777.34;5051781;28;20389;-76
2023/06/07 07:25:33;;;;;;;9.90;9.00;;;;;;;21.89;73.34;99761.72;5052130;28;20058;-76
2023/06/07 07:27:58;;;;;;;10.75;9.65;;;;;;;22.08;74.28;99774.13;5051791;28;20032;-76
2023/06/07 07:30:24;;;;;;;10.88;9.13;;;;;;;22.23;74.28;99777.19;5051657;28;20033;-76
2023/06/07 07:32:49;;;;;;;15.13;11.50;;;;;;;22.16;73.50;99760.16;5051753;28;20059;-76
2023/06/07 07:35:14;;;;;;;11.25;10.05;;;;;;;22.36;73.74;99775.06;5052234;28;20021;-76
2023/06/07 07:37:40;;;;;;;13.90;9.85;;;;;;;22.37;73.75;99762.63;5051927;28;20049;-76
2023/06/07 07:40:14;;;;;;;13.73;10.80;;;;;;;22.44;73.68;99755.75;5051804;28;20025;-76
2023/06/07 07:42:40;;;;;;;11.05;9.65;;;;;;;22.63;72.94;99781.41;5051730;28;20025;-76
2023/06/07 07:45:06;;;;;;;11.40;9.38;;;;;;;22.59;73.23;99759.63;5052067;28;20108;-76
2023/06/07 07:47:31;;;;;;;10.27;9.30;;;;;;;22.77;72.15;99772.97;5051775;28;20423;-76
2023/06/07 07:49:57;;;;;;;9.45;8.55;;;;;;;22.67;71.48;99762.41;5051622;28;20025;-76
2023/06/07 07:52:22;;;;;;;11.32;8.30;;;;;;;22.93;71.10;99777.69;5051441;28;20075;-76
2023/06/07 07:54:48;;;;;;;9.48;8.57;;;;;;;22.91;70.21;99771.66;5051877;28;20032;-76
2023/06/07 07:57:13;;;;;;;9.10;8.07;;;;;;;23.06;69.86;99774.69;5051550;28;20063;-76
2023/06/07 07:59:39;;;;;;;8.70;7.80;;;;;;;23.18;69.75;99773.50;5051647;28;20119;-76
2023/06/07 08:02:05;;;;;;;9.13;8.23;;;;;;;23.10;69.60;99736.19;5051841;28;20025;-76
2023/06/07 08:04:30;;;;;;;8.95;7.60;;;;;;;23.50;67.88;99762.34;5051387;28;20028;-76
2023/06/07 08:06:56;;;;;;;10.57;8.15;;;;;;;23.80;67.85;99761.13;5051668;28;20021;-76
2023/06/07 08:09:21;;;;;;;8.95;8.15;;;;;;;24.12;67.52;99771.19;5051421;28;20539;-76
2023/06/07 08:11:47;;;;;;;8.40;7.47;;;;;;;24.24;64.14;99779.78;5051408;28;20362;-76
2023/06/07 08:14:13;;;;;;;7.40;6.47;;;;;;;24.02;61.83;99748.31;5051380;28;20372;-76
2023/06/07 08:16:38;;;;;;;10.75;6.20;;;;;;;24.22;61.46;99756.97;5051503;28;20031;-76
2023/06/07 08:19:06;;;;;;;7.63;6.32;;;;;;;24.53;62.10;99778.66;5051358;28;20020;-76
2023/06/07 08:21:33;;;;;;;6.88;5.70;;;;;;;24.66;60.38;99762.25;5051149;28;20087;-76
2023/06/07 08:23:59;;;;;;;6.35;5.75;;;;;;;24.86;58.53;99782.28;5051256;28;20029;-76
2023/06/07 08:26:24;;;;;;;6.38;5.75;;;;;;;24.74;58.59;99768.44;5051009;28;20188;-76
2023/06/07 08:28:50;;;;;;;7.03;6.32;;;;;;;24.87;59.30;99773.31;5051456;28;20138;-75
2023/06/07 08:31:15;;;;;;;6.25;5.57;;;;;;;25.09;59.07;99762.09;5052103;28;20417;-76
2023/06/07 08:33:41;;;;;;;6.57;5.95;;;;;;;25.18;58.73;99751.47;5054912;28;20529;-76
2023/06/07 08:36:06;;;;;;;6.20;5.13;;;;;;;25.51;59.27;99769.19;5055152;28;20104;-76
2023/06/07 08:38:31;;;;;;;6.82;5.35;;;;;;;25.78;57.41;99760.06;5054609;28;20029;-76
2023/06/07 08:40:58;;;;;;;9.10;6.85;;;;;;;25.88;56.74;99763.41;5054836;28;20024;-76
2023/06/07 08:43:25;;;;;;;6.80;6.10;;;;;;;25.82;56.51;99752.56;5054754;28;20083;-76
2023/06/07 08:45:50;;;;;;;8.65;5.75;;;;;;;25.95;56.61;99755.56;5054861;28;20025;-76
2023/06/07 08:48:16;;;;;;;6.22;5.60;;;;;;;26.07;56.29;99762.22;5054534;28;20404;-76
2023/06/07 08:50:45;;;;;;;9.13;6.25;;;;;;;25.83;56.40;99741.75;5054673;28;20468;-76
2023/06/07 08:53:14;;;;;;;6.53;5.72;;;;;;;25.79;57.43;99745.75;5054677;28;20029;-76
2023/06/07 08:55:41;;;;;;;8.15;6.22;;;;;;;25.76;56.20;99740.69;5055002;28;20028;-75
2023/06/07 08:58:07;;;;;;;8.55;5.95;;;;;;;25.86;56.68;99746.72;5054722;28;20445;-76
2023/06/07 09:00:32;;;;;;;5.97;5.38;;;;;;;26.01;56.75;99762.91;5054324;28;20056;-76
2023/06/07 09:02:58;;;;;;;6.82;5.70;;;;;;;25.99;55.76;99759.56;5054342;28;20037;-76
2023/06/07 09:05:24;;;;;;;5.82;5.40;;;;;;;25.86;55.77;99753.91;5054367;28;20461;-76
2023/06/07 09:07:50;;;;;;;6.85;5.32;;;;;;;25.92;55.61;99758.56;5053880;28;20461;-76
2023/06/07 09:10:17;;;;;;;7.38;6.15;;;;;;;25.60;54.26;99732.69;5038593;28;20021;-76
2023/06/07 09:12:45;;;;;;;6.13;5.53;;;;;;;25.35;54.94;99731.84;5045637;28;20381;-76
2023/06/07 09:15:21;;;;;;;7.38;5.82;;;;;;;25.39;55.11;99751.84;5054203;28;20495;-76
2023/06/07 09:17:58;;;;;;;7.22;5.63;;;;;;;25.33;55.20;99732.00;5052190;28;20025;-76
2023/06/07 09:20:26;;;;;;;6.57;5.65;;;;;;;25.51;55.42;99736.34;5041894;28;20021;-76
2023/06/07 09:22:59;;;;;;;6.95;6.25;;;;;;;25.52;55.20;99730.84;5042097;28;20218;-76
2023/06/07 09:25:26;;;;;;;6.68;6.13;;;;;;;25.41;55.96;99752.53;5043322;28;20372;-76
2023/06/07 09:27:51;;;;;;;6.75;6.00;;;;;;;25.27;55.11;99745.16;5043469;28;20067;-76
2023/06/07 09:30:18;;;;;;;6.38;5.78;;;;;;;25.11;56.42;99748.59;5041703;28;20056;-76
2023/06/07 09:32:43;;;;;;;7.28;6.55;;;;;;;25.01;55.87;99731.91;5042719;28;20035;-76
2023/06/07 09:35:16;;;;;;;7.32;6.45;;;;;;;25.00;56.36;99736.41;5052189;28;20017;-75
2023/06/07 09:37:42;;;;;;;6.80;6.20;;;;;;;25.06;56.71;99729.56;5053875;28;20464;-76
2023/06/07 09:40:08;;;;;;;7.55;6.43;;;;;;;25.12;57.04;99728.97;5053867;28;20067;-76
2023/06/07 09:42:33;;;;;;;7.32;6.63;;;;;;;24.99;56.57;99715.22;5053579;28;20068;-76
2023/06/07 09:45:17;;;;;;;7.60;6.90;;;;;;;25.07;56.65;99726.75;5053799;28;20029;-76
2023/06/07 09:47:42;;;;;;;8.30;7.03;;;;;;;25.31;56.14;99744.66;5053588;28;20029;-76
2023/06/07 09:50:12;;;;;;;8.18;7.15;;;;;;;25.36;56.75;99744.16;5053850;28;20025;-76
2023/06/07 09:52:38;;;;;;;9.20;7.72;;;;;;;25.46;55.91;99736.03;5053445;28;20079;-76
2023/06/07 09:55:08;;;;;;;8.75;7.10;;;;;;;25.41;55.75;99744.53;5053623;28;20033;-76
2023/06/07 09:57:35;;;;;;;6.78;5.93;;;;;;;25.26;56.19;99731.00;5053158;28;20056;-76
2023/06/07 10:00:13;;;;;;;7.53;6.65;;;;;;;25.42;56.87;99737.34;5053253;28;20041;-76
2023/06/07 10:02:41;;;;;;;7.20;6.60;;;;;;;25.21;55.24;99709.31;5053341;28;20025;-76
2023/06/07 10:05:07;;;;;;;8.30;6.55;;;;;;;25.24;56.01;99725.00;5053370;28;20103;-76
2023/06/07 10:07:36;;;;;;;7.03;6.35;;;;;;;25.21;55.08;99711.16;5053060;28;20082;-75
2023/06/07 10:10:02;;;;;;;9.77;7.35;;;;;;;25.27;55.14;99713.16;5053166;28;20052;-76
2023/06/07 10:12:30;;;;;;;7.85;6.85;;;;;;;25.39;54.75;99696.66;5052871;28;20078;-76
2023/06/07 10:15:01;;;;;;;6.75;6.07;;;;;;;25.55;54.77;99697.69;5052666;28;20032;-75
2023/06/07 10:18:07;;;;;;;7.28;6.55;;;;;;;25.83;54.94;99709.72;5053034;28;20452;-76
2023/06/07 10:20:57;;;;;;;9.52;6.63;;;;;;;26.10;54.58;99729.84;5050219;28;20036;-76
2023/06/07 10:23:35;;;;;;;7.20;6.50;;;;;;;26.28;54.87;99716.28;4971643;28;20035;-76
2023/06/07 10:26:08;;;;;;;6.80;6.03;;;;;;;26.31;52.89;99696.44;4971726;28;20561;-76
2023/06/07 10:28:45;;;;;;;6.13;5.63;;;;;;;26.53;53.83;99716.25;4971476;28;20098;-76
2023/06/07 10:31:13;;;;;;;6.60;5.93;;;;;;;26.59;51.78;99713.72;4971653;28;20121;-76
2023/06/07 10:33:39;;;;;;;7.25;6.45;;;;;;;26.50;51.25;99700.56;4970952;28;20200;-76
2023/06/07 10:36:07;;;;;;;7.13;5.80;;;;;;;26.62;51.35;99697.34;4971528;28;20174;-76
2023/06/07 10:38:33;;;;;;;9.18;6.53;;;;;;;26.48;49.82;99695.41;4971220;28;20053;-76
2023/06/07 10:41:01;;;;;;;6.38;5.78;;;;;;;26.43;51.09;99704.91;4971291;28;20398;-76
2023/06/07 10:43:30;;;;;;;6.78;6.07;;;;;;;26.62;49.22;99712.53;4971050;28;20487;-76
2023/06/07 10:46:18;;;;;;;8.25;6.10;;;;;;;26.68;48.27;99711.03;4971402;28;20046;-76
2023/06/07 10:48:45;;;;;;;9.50;6.65;;;;;;;26.58;48.53;99705.88;4971357;28;20042;-76
2023/06/07 10:51:11;;;;;;;7.28;6.32;;;;;;;26.73;48.41;99706.00;4971281;28;20560;-76
2023/06/07 10:53:51;;;;;;;7.45;6.10;;;;;;;26.62;48.58;99678.63;4970665;28;20042;-76
2023/06/07 10:56:33;;;;;;;7.25;6.38;;;;;;;26.62;48.22;99672.47;4971319;28;20500;-76
2023/06/07 10:59:14;;;;;;;8.57;6.15;;;;;;;26.69;48.56;99694.81;4990409;28;20031;-76
2023/06/07 11:01:39;;;;;;;6.90;6.07;;;;;;;26.60;48.96;99696.69;5052161;28;20021;-76
2023/06/07 11:04:04;;;;;;;8.23;6.25;;;;;;;26.45;49.33;99669.03;5052291;28;20024;-76
2023/06/07 11:06:33;;;;;;;8.38;6.03;;;;;;;26.62;48.32;99664.44;5052037;28;20063;-76
2023/06/07 11:09:22;;;;;;;6.28;5.68;;;;;;;26.68;47.50;99671.78;5052207;28;20025;-76
2023/06/07 11:11:47;;;;;;;6.30;5.60;;;;;;;26.71;47.49;99665.25;5052685;28;20369;-76
2023/06/07 11:14:13;;;;;;;6.53;5.65;;;;;;;26.92;47.72;99686.84;5052120;28;20025;-75
2023/06/07 11:16:39;;;;;;;7.82;6.55;;;;;;;26.89;47.19;99681.84;5051831;28;20040;-75
2023/06/07 11:19:14;;;;;;;7.07;5.65;;;;;;;26.89;47.49;99671.16;5051797;28;20389;-75
2023/06/07 11:21:55;;;;;;;7.57;6.28;;;;;;;27.05;47.57;99683.56;5051822;28;20059;-77
2023/06/07 11:24:21;;;;;;;6.20;5.60;;;;;;;27.16;47.15;99685.06;5051973;28;20029;-76
2023/06/07 11:26:48;;;;;;;6.75;5.60;;;;;;;27.28;46.36;99680.97;5051873;28;20025;-76
2023/06/07 11:29:20;;;;;;;6.05;5.43;;;;;;;27.07;47.18;99653.00;5051869;28;20431;-76